Time;durP1;ratioP1;P1;durP2;ratioP2;P2;SDS_P1;SDS_P2;PMS_P1;PMS_P2;Temp;Humidity;BMP_temperature;BMP_pressure;BME280_temperature;BME280_humidity;BME280_pressure;Samples;Min_cycle;Max_cycle;Signal;HPM_P1;HPM_P2
2022/09/16 00:01:15;;;;;;;3.22;2.90;;;;;;;17.31;65.09;96774.66;5044167;28;20039;-82
2022/09/16 00:03:41;;;;;;;4.25;2.83;;;;;;;17.36;65.03;96767.44;5066133;28;20047;-82
2022/09/16 00:06:16;;;;;;;4.93;2.70;;;;;;;17.18;65.32;96763.09;5065864;28;20567;-83
2022/09/16 00:08:43;;;;;;;3.38;2.88;;;;;;;17.23;63.79;96762.97;5063370;28;20032;-82
2022/09/16 00:11:08;;;;;;;3.65;2.85;;;;;;;17.12;63.43;96751.91;5067194;28;20032;-82
2022/09/16 00:13:34;;;;;;;3.30;2.50;;;;;;;17.10;63.86;96756.69;5049924;28;20105;-83
2022/09/16 00:16:00;;;;;;;4.07;2.78;;;;;;;17.02;64.60;96771.31;5067825;28;20033;-83
2022/09/16 00:18:25;;;;;;;4.70;2.90;;;;;;;16.88;65.44;96770.56;5066777;28;20519;-83
2022/09/16 00:20:51;;;;;;;4.88;2.92;;;;;;;16.87;65.29;96769.00;5068015;28;20025;-83
2022/09/16 00:23:18;;;;;;;4.30;3.03;;;;;;;16.86;64.84;96770.06;5050488;28;20647;-83
2022/09/16 00:25:43;;;;;;;4.53;3.13;;;;;;;16.83;65.37;96773.28;5067198;28;20401;-83
2022/09/16 00:28:09;;;;;;;5.65;3.03;;;;;;;16.73;65.86;96768.22;5065384;28;20032;-82
2022/09/16 00:30:34;;;;;;;3.55;3.10;;;;;;;16.70;65.31;96766.94;5059098;28;20072;-83
2022/09/16 00:33:00;;;;;;;4.45;3.15;;;;;;;16.61;65.73;96766.84;5050137;28;20032;-81
2022/09/16 00:35:25;;;;;;;8.05;4.35;;;;;;;16.57;66.15;96768.53;5045878;28;20032;-83
2022/09/16 00:37:50;;;;;;;4.78;2.90;;;;;;;16.48;66.36;96759.75;5066487;28;20044;-83
2022/09/16 00:40:16;;;;;;;4.13;3.35;;;;;;;16.43;65.87;96759.84;5068065;28;20040;-82
2022/09/16 00:42:41;;;;;;;4.03;3.17;;;;;;;16.40;66.38;96758.59;5033643;28;20024;-83
2022/09/16 00:45:14;;;;;;;5.07;4.50;;;;;;;16.24;67.48;96755.44;5044185;28;20039;-83
2022/09/16 00:47:42;;;;;;;3.72;3.13;;;;;;;16.26;67.40;96752.53;5013580;28;20036;-82
2022/09/16 00:50:19;;;;;;;4.35;3.42;;;;;;;16.29;67.63;96752.72;5066229;28;20036;-80
2022/09/16 00:52:46;;;;;;;4.55;3.25;;;;;;;16.39;67.68;96748.38;5065966;28;20149;-83
2022/09/16 00:55:15;;;;;;;3.40;3.10;;;;;;;16.20;67.55;96746.59;5047665;28;20123;-83
2022/09/16 00:57:41;;;;;;;4.90;3.85;;;;;;;16.15;68.38;96730.94;5064861;28;20040;-81
2022/09/16 01:00:12;;;;;;;5.07;4.05;;;;;;;16.23;68.70;96725.03;5062289;28;20032;-84
2022/09/16 01:02:38;;;;;;;4.80;4.30;;;;;;;16.25;68.79;96719.47;5063856;28;20154;-78
2022/09/16 01:05:07;;;;;;;4.80;3.72;;;;;;;16.23;68.60;96721.63;5046012;28;20115;-78
2022/09/16 01:07:42;;;;;;;6.38;4.00;;;;;;;16.29;67.91;96731.72;5031750;28;20122;-78
2022/09/16 01:10:08;;;;;;;4.97;3.90;;;;;;;16.55;67.17;96718.06;5049518;28;20029;-77
2022/09/16 01:12:35;;;;;;;4.68;3.70;;;;;;;16.40;68.00;96707.88;5049442;28;20362;-78
2022/09/16 01:15:01;;;;;;;7.30;3.90;;;;;;;16.33;68.50;96715.38;5063721;28;20541;-77
2022/09/16 01:17:46;;;;;;;4.38;3.92;;;;;;;16.44;68.21;96716.75;5050070;28;20039;-78
2022/09/16 01:20:35;;;;;;;4.43;4.00;;;;;;;16.50;66.92;96741.84;5067451;28;20067;-77
2022/09/16 01:23:16;;;;;;;5.30;3.67;;;;;;;16.57;66.53;96752.75;5067776;28;20036;-78
2022/09/16 01:26:18;;;;;;;6.57;4.45;;;;;;;16.60;66.59;96757.41;5058353;28;20438;-78
2022/09/16 01:29:11;;;;;;;5.22;3.63;;;;;;;16.64;66.63;96758.38;5064527;28;20063;-77
2022/09/16 01:31:48;;;;;;;5.72;3.90;;;;;;;16.62;66.42;96749.22;5068117;28;20032;-77
2022/09/16 01:34:23;;;;;;;5.63;3.78;;;;;;;16.65;66.38;96759.16;5066788;28;20484;-77
2022/09/16 01:36:54;;;;;;;5.28;3.97;;;;;;;16.61;66.98;96764.22;5066240;28;20032;-76
2022/09/16 01:39:33;;;;;;;7.35;4.30;;;;;;;16.57;67.43;96763.28;5067992;28;20037;-77
2022/09/16 01:42:09;;;;;;;5.43;4.00;;;;;;;16.79;67.07;96769.66;5066316;28;20306;-77
2022/09/16 01:44:55;;;;;;;7.18;4.07;;;;;;;16.58;68.10;96762.19;5062853;28;20060;-77
2022/09/16 01:47:36;;;;;;;6.55;4.25;;;;;;;16.59;67.90;96763.75;5062692;28;20047;-77
2022/09/16 01:50:14;;;;;;;4.72;3.70;;;;;;;16.49;68.40;96761.31;5066312;28;20408;-77
2022/09/16 01:52:58;;;;;;;5.65;4.20;;;;;;;16.41;68.85;96751.47;5066496;28;20040;-77
2022/09/16 01:55:37;;;;;;;7.50;4.53;;;;;;;16.51;69.27;96755.78;5065841;28;20032;-77
2022/09/16 01:58:09;;;;;;;7.05;4.28;;;;;;;16.44;69.50;96748.28;5067192;28;20028;-78
2022/09/16 02:00:36;;;;;;;4.90;4.18;;;;;;;16.60;68.58;96746.13;5063771;28;20029;-78
2022/09/16 02:03:08;;;;;;;6.72;5.28;;;;;;;16.71;68.87;96746.69;5050476;28;20052;-77
2022/09/16 02:05:47;;;;;;;5.05;4.55;;;;;;;16.47;68.79;96756.34;5046352;28;20033;-78
2022/09/16 02:08:18;;;;;;;6.13;4.70;;;;;;;16.54;68.88;96758.59;5049032;28;20392;-78
2022/09/16 02:10:46;;;;;;;6.07;4.45;;;;;;;16.60;68.82;96757.41;5053544;28;20170;-78
2022/09/16 02:13:26;;;;;;;5.13;4.47;;;;;;;16.43;69.35;96752.75;5034056;28;20432;-78
2022/09/16 02:15:52;;;;;;;5.07;3.70;;;;;;;16.59;68.43;96749.84;5063507;28;20551;-78
2022/09/16 02:18:22;;;;;;;5.07;4.20;;;;;;;16.53;68.51;96746.50;5070666;28;20531;-78
2022/09/16 02:20:49;;;;;;;5.80;4.20;;;;;;;16.51;68.63;96748.66;5053858;28;20507;-78
2022/09/16 02:23:20;;;;;;;5.78;3.70;;;;;;;16.45;68.14;96752.44;5036719;28;20513;-78
2022/09/16 02:25:47;;;;;;;4.45;3.67;;;;;;;16.50;67.62;96743.69;5051399;28;20166;-78
2022/09/16 02:28:17;;;;;;;6.45;3.70;;;;;;;16.51;67.23;96743.41;5053827;28;20029;-78
2022/09/16 02:30:45;;;;;;;4.68;3.30;;;;;;;16.62;66.65;96749.22;5044570;28;20532;-78
2022/09/16 02:33:12;;;;;;;4.07;3.25;;;;;;;16.57;66.44;96750.13;5068916;28;20078;-78
2022/09/16 02:35:38;;;;;;;4.38;3.10;;;;;;;16.67;65.15;96749.94;5052939;28;20016;-78
2022/09/16 02:38:27;;;;;;;3.65;2.83;;;;;;;16.69;65.58;96754.88;5069630;28;20056;-78
2022/09/16 02:40:55;;;;;;;3.38;3.08;;;;;;;16.76;66.47;96760.53;5070399;28;20067;-78
2022/09/16 02:43:21;;;;;;;4.68;3.72;;;;;;;16.86;66.66;96759.53;5030930;28;20044;-78
2022/09/16 02:45:54;;;;;;;4.38;3.22;;;;;;;16.72;66.82;96759.53;5066261;28;20111;-78
2022/09/16 02:48:51;;;;;;;3.63;3.15;;;;;;;16.67;66.88;96757.81;5069291;28;20572;-77
2022/09/16 02:51:29;;;;;;;4.18;3.10;;;;;;;16.76;65.94;96751.84;5068550;28;20075;-78
2022/09/16 02:54:12;;;;;;;3.67;2.97;;;;;;;16.76;65.75;96757.91;5070646;28;20131;-77
2022/09/16 02:56:39;;;;;;;4.10;3.13;;;;;;;16.88;65.76;96752.16;5069113;28;20427;-78
2022/09/16 02:59:05;;;;;;;3.85;3.42;;;;;;;16.88;66.15;96743.47;5069307;28;20508;-78
2022/09/16 03:01:33;;;;;;;6.15;3.17;;;;;;;16.81;67.30;96747.28;5049258;28;20032;-78
2022/09/16 03:03:58;;;;;;;4.68;2.97;;;;;;;16.90;67.09;96743.97;5069006;28;20090;-78
2022/09/16 03:06:25;;;;;;;5.30;4.00;;;;;;;16.89;67.04;96743.19;5052657;28;20499;-78
2022/09/16 03:08:53;;;;;;;3.88;3.25;;;;;;;16.84;66.84;96735.41;5052612;28;20119;-78
2022/09/16 03:11:27;;;;;;;4.88;3.25;;;;;;;16.75;66.68;96734.53;5068631;28;20036;-78
2022/09/16 03:14:21;;;;;;;4.40;3.20;;;;;;;16.71;66.98;96736.16;5034819;28;20039;-78
2022/09/16 03:17:02;;;;;;;3.65;2.83;;;;;;;16.87;66.20;96740.06;5068910;28;20028;-78
2022/09/16 03:19:39;;;;;;;5.93;3.20;;;;;;;16.69;65.34;96731.22;5070121;28;20037;-78
2022/09/16 03:22:28;;;;;;;5.10;3.22;;;;;;;16.75;66.23;96729.25;5050516;28;20055;-78
2022/09/16 03:25:21;;;;;;;3.85;3.03;;;;;;;16.70;66.52;96732.00;5068897;28;20039;-78
2022/09/16 03:27:55;;;;;;;4.45;3.22;;;;;;;16.77;65.60;96732.38;5032010;28;20460;-77
2022/09/16 03:30:21;;;;;;;4.57;3.58;;;;;;;16.90;65.63;96728.22;5063008;28;20415;-78
2022/09/16 03:32:57;;;;;;;6.22;3.78;;;;;;;16.74;66.77;96738.22;5069422;28;20385;-78
2022/09/16 03:35:33;;;;;;;5.03;3.63;;;;;;;16.77;67.80;96735.00;5052470;28;20113;-77
2022/09/16 03:38:00;;;;;;;4.55;3.97;;;;;;;16.91;67.69;96735.00;5069308;28;20064;-78
2022/09/16 03:40:28;;;;;;;8.23;4.10;;;;;;;16.89;67.22;96737.94;5052259;28;20040;-78
2022/09/16 03:42:56;;;;;;;5.55;3.30;;;;;;;16.96;66.99;96735.66;5052596;28;20510;-78
2022/09/16 03:45:21;;;;;;;3.85;3.40;;;;;;;16.97;66.81;96724.09;5051840;28;20089;-77
2022/09/16 03:47:48;;;;;;;5.60;3.60;;;;;;;16.85;66.64;96723.81;5070234;28;20115;-77
2022/09/16 03:50:14;;;;;;;4.35;3.38;;;;;;;16.90;66.86;96726.34;5066656;28;20040;-78
2022/09/16 03:52:40;;;;;;;3.97;2.92;;;;;;;16.95;66.49;96725.47;5070261;28;20119;-77
2022/09/16 03:55:06;;;;;;;4.95;3.17;;;;;;;16.93;66.20;96728.38;5068366;28;20583;-77
2022/09/16 03:57:32;;;;;;;5.45;3.20;;;;;;;16.91;66.66;96721.84;5069146;28;20039;-77
2022/09/16 03:59:57;;;;;;;7.15;3.67;;;;;;;16.80;67.40;96723.91;5066767;28;20477;-78
2022/09/16 04:02:23;;;;;;;4.18;3.20;;;;;;;16.76;67.36;96725.53;5068975;28;20125;-78
2022/09/16 04:04:48;;;;;;;4.38;3.03;;;;;;;16.79;67.32;96722.34;5070039;28;20028;-78
2022/09/16 04:07:14;;;;;;;4.80;3.20;;;;;;;16.76;67.38;96721.09;5067770;28;20036;-77
2022/09/16 04:09:41;;;;;;;5.13;3.50;;;;;;;16.79;67.18;96715.25;5067514;28;20051;-77
2022/09/16 04:12:06;;;;;;;5.40;3.03;;;;;;;16.85;66.80;96715.94;5068608;28;20039;-77
2022/09/16 04:14:32;;;;;;;6.18;3.60;;;;;;;16.84;66.81;96714.38;5068418;28;20028;-77
2022/09/16 04:16:58;;;;;;;4.47;3.22;;;;;;;16.79;67.29;96717.06;5068633;28;20146;-78
2022/09/16 04:19:23;;;;;;;4.78;3.90;;;;;;;16.73;67.47;96713.00;5049793;28;20124;-78
2022/09/16 04:21:49;;;;;;;5.80;4.32;;;;;;;16.73;67.78;96710.38;5067634;28;20040;-78
2022/09/16 04:24:14;;;;;;;7.57;3.15;;;;;;;16.71;67.55;96704.63;5067914;28;20482;-78
2022/09/16 04:26:41;;;;;;;4.35;3.63;;;;;;;16.71;67.42;96712.50;5050001;28;20033;-78
2022/09/16 04:29:06;;;;;;;6.15;3.92;;;;;;;16.74;67.62;96707.47;5060711;28;20247;-78
2022/09/16 04:31:32;;;;;;;4.60;3.42;;;;;;;16.62;68.08;96713.22;5048212;28;20021;-78
2022/09/16 04:33:57;;;;;;;4.03;3.08;;;;;;;16.64;68.20;96705.81;5031506;28;20250;-78
2022/09/16 04:36:23;;;;;;;5.13;3.60;;;;;;;16.62;67.95;96702.72;5065717;28;20048;-77
2022/09/16 04:38:48;;;;;;;4.32;3.83;;;;;;;16.61;67.79;96706.41;5067647;28;20044;-78
2022/09/16 04:41:18;;;;;;;4.07;3.40;;;;;;;16.72;67.47;96706.19;5067385;28;20026;-78
2022/09/16 04:43:43;;;;;;;5.15;3.13;;;;;;;16.69;67.28;96704.94;5066788;28;20040;-78
2022/09/16 04:46:09;;;;;;;6.05;3.40;;;;;;;16.62;67.36;96707.16;5064458;28;20366;-78
2022/09/16 04:48:35;;;;;;;3.35;2.95;;;;;;;16.57;66.50;96707.28;5049098;28;20375;-78
2022/09/16 04:51:03;;;;;;;3.80;3.17;;;;;;;16.55;66.68;96707.56;5049395;28;20090;-78
2022/09/16 04:53:29;;;;;;;6.38;3.08;;;;;;;16.61;67.06;96709.03;5050740;28;20060;-78
2022/09/16 04:56:02;;;;;;;4.30;3.13;;;;;;;16.47;66.03;96709.06;5067379;28;20037;-78
2022/09/16 04:58:28;;;;;;;5.15;3.65;;;;;;;16.65;66.09;96710.00;5066258;28;20028;-78
2022/09/16 05:00:53;;;;;;;3.30;2.80;;;;;;;16.67;66.79;96715.75;5066922;28;20041;-78
2022/09/16 05:03:18;;;;;;;3.70;3.28;;;;;;;16.70;66.47;96710.97;5048972;28;20028;-78
2022/09/16 05:05:44;;;;;;;3.92;3.30;;;;;;;16.64;66.36;96718.97;5067533;28;20024;-77
2022/09/16 05:08:09;;;;;;;6.97;3.88;;;;;;;16.60;67.36;96717.22;5064639;28;20054;-78
2022/09/16 05:10:34;;;;;;;4.55;3.03;;;;;;;16.57;67.24;96715.16;5065854;28;20290;-77
2022/09/16 05:13:00;;;;;;;5.90;3.58;;;;;;;16.48;67.58;96713.25;5065054;28;20443;-78
2022/09/16 05:15:25;;;;;;;4.10;3.05;;;;;;;16.52;66.48;96716.06;5049194;28;20460;-78
2022/09/16 05:17:50;;;;;;;4.53;3.28;;;;;;;16.45;66.04;96713.81;5063511;28;20476;-78
2022/09/16 05:20:16;;;;;;;5.47;3.80;;;;;;;16.50;65.43;96718.19;5067198;28;20043;-78
2022/09/16 05:22:42;;;;;;;3.88;2.67;;;;;;;16.52;64.57;96718.69;5065897;28;20062;-78
2022/09/16 05:25:07;;;;;;;5.22;2.72;;;;;;;16.53;64.23;96714.97;5048356;28;20028;-78
2022/09/16 05:27:34;;;;;;;5.35;2.67;;;;;;;16.55;64.70;96717.31;5064887;28;20032;-78
2022/09/16 05:30:00;;;;;;;3.75;2.75;;;;;;;16.61;64.41;96716.91;5062281;28;20029;-78
2022/09/16 05:32:26;;;;;;;4.35;3.00;;;;;;;16.65;64.00;96717.88;5066737;28;20480;-78
2022/09/16 05:34:51;;;;;;;6.18;3.20;;;;;;;16.66;65.68;96716.03;5066548;28;20041;-78
2022/09/16 05:37:16;;;;;;;3.78;2.50;;;;;;;16.69;64.08;96725.97;5064992;28;20036;-77
2022/09/16 05:39:42;;;;;;;5.72;2.35;;;;;;;16.65;64.73;96723.13;5066150;28;20036;-78
2022/09/16 05:42:08;;;;;;;5.53;2.92;;;;;;;16.76;64.82;96722.91;5049045;28;20043;-77
2022/09/16 05:44:33;;;;;;;5.53;3.00;;;;;;;16.75;64.95;96719.53;5062176;28;20062;-78
2022/09/16 05:46:59;;;;;;;7.18;2.92;;;;;;;16.73;64.35;96726.94;5066605;28;20104;-78
2022/09/16 05:49:24;;;;;;;3.00;2.40;;;;;;;16.69;63.77;96728.59;5050164;28;20318;-78
2022/09/16 05:51:50;;;;;;;4.57;3.22;;;;;;;16.70;63.46;96732.00;5065198;28;20028;-77
2022/09/16 05:54:20;;;;;;;5.15;3.22;;;;;;;16.70;63.69;96729.38;5049908;28;20028;-78
2022/09/16 05:56:46;;;;;;;5.22;2.88;;;;;;;16.69;64.73;96728.59;5050702;28;20020;-77
2022/09/16 05:59:12;;;;;;;4.63;2.72;;;;;;;16.72;63.76;96728.00;5066049;28;20248;-78
2022/09/16 06:01:38;;;;;;;2.88;2.55;;;;;;;16.76;63.11;96733.44;5031355;28;20017;-78
2022/09/16 06:04:06;;;;;;;3.10;2.55;;;;;;;16.73;63.31;96732.19;5050086;28;20162;-77
2022/09/16 06:06:37;;;;;;;4.18;2.38;;;;;;;16.74;62.82;96731.13;5031748;28;20051;-78
2022/09/16 06:09:05;;;;;;;3.53;2.78;;;;;;;16.77;62.60;96735.00;5064044;28;20365;-78
2022/09/16 06:11:35;;;;;;;3.72;2.83;;;;;;;16.78;62.29;96736.56;5059053;28;20039;-78
2022/09/16 06:14:01;;;;;;;4.97;3.20;;;;;;;16.88;62.49;96736.38;5046258;28;20504;-77
2022/09/16 06:16:27;;;;;;;5.55;3.05;;;;;;;16.94;61.89;96732.56;5065746;28;20104;-78
2022/09/16 06:18:54;;;;;;;3.03;2.35;;;;;;;16.91;61.74;96735.78;5047449;28;20119;-77
2022/09/16 06:21:20;;;;;;;4.13;2.53;;;;;;;16.97;61.41;96739.88;5065742;28;20360;-77
2022/09/16 06:23:46;;;;;;;3.60;2.30;;;;;;;17.01;61.48;96732.91;5047295;28;20032;-77
2022/09/16 06:26:16;;;;;;;4.25;2.40;;;;;;;16.88;62.10;96733.75;5065291;28;20051;-77
2022/09/16 06:28:42;;;;;;;4.57;2.60;;;;;;;17.07;63.07;96733.59;5061841;28;20074;-77
2022/09/16 06:31:13;;;;;;;2.80;2.30;;;;;;;16.92;62.99;96737.34;5038690;28;20033;-77
2022/09/16 06:33:39;;;;;;;5.60;2.55;;;;;;;17.02;63.54;96731.84;5024803;28;20032;-77
2022/09/16 06:36:10;;;;;;;3.53;2.30;;;;;;;17.04;62.77;96724.44;5047140;28;20094;-77
2022/09/16 06:38:35;;;;;;;5.85;1.85;;;;;;;17.09;62.60;96718.31;5065527;28;20037;-77
2022/09/16 06:41:03;;;;;;;3.13;1.90;;;;;;;17.10;62.31;96726.97;5063246;28;20126;-77
2022/09/16 06:43:28;;;;;;;2.47;1.90;;;;;;;17.11;62.24;96729.31;5048037;28;20036;-77
2022/09/16 06:46:02;;;;;;;2.95;2.33;;;;;;;17.08;61.34;96726.50;5047696;28;20382;-77
2022/09/16 06:48:30;;;;;;;2.70;2.13;;;;;;;17.16;61.41;96726.56;5048105;28;20032;-77
2022/09/16 06:51:00;;;;;;;5.38;2.05;;;;;;;17.20;60.63;96727.53;5065058;28;20040;-77
2022/09/16 06:53:25;;;;;;;5.07;1.88;;;;;;;17.15;60.94;96727.66;5052048;28;20032;-77
2022/09/16 06:55:51;;;;;;;3.85;2.08;;;;;;;17.17;61.11;96725.50;5068748;28;20028;-77
2022/09/16 06:58:16;;;;;;;2.33;2.10;;;;;;;17.16;61.64;96728.41;5065959;28;20036;-77
2022/09/16 07:00:42;;;;;;;4.72;2.45;;;;;;;17.13;61.02;96729.78;5064241;28;20028;-77
2022/09/16 07:03:07;;;;;;;2.13;1.90;;;;;;;17.19;60.99;96727.81;5065896;28;20059;-77
2022/09/16 07:05:33;;;;;;;2.58;2.22;;;;;;;17.11;62.59;96729.31;5050675;28;20084;-77
2022/09/16 07:07:58;;;;;;;3.20;1.77;;;;;;;17.23;60.43;96732.19;5050964;28;20028;-77
2022/09/16 07:10:24;;;;;;;4.55;1.60;;;;;;;17.23;59.76;96734.03;5065637;28;20028;-78
2022/09/16 07:12:50;;;;;;;2.88;2.13;;;;;;;17.17;60.12;96743.91;5067573;28;20040;-77
2022/09/16 07:15:15;;;;;;;3.53;1.80;;;;;;;17.15;60.37;96735.53;5049917;28;20747;-77
2022/09/16 07:17:41;;;;;;;5.57;2.40;;;;;;;17.23;60.62;96736.66;5067849;28;20040;-77
2022/09/16 07:20:07;;;;;;;2.92;1.80;;;;;;;17.29;61.08;96737.31;5030662;28;20107;-77
2022/09/16 07:22:32;;;;;;;3.55;1.88;;;;;;;17.32;60.85;96736.72;5051501;28;20037;-77
2022/09/16 07:24:57;;;;;;;3.47;1.80;;;;;;;17.20;62.04;96737.25;5068289;28;20043;-78
2022/09/16 07:27:23;;;;;;;2.80;2.00;;;;;;;17.27;61.12;96737.63;5050479;28;20032;-77
2022/09/16 07:29:48;;;;;;;2.33;1.58;;;;;;;17.38;59.78;96749.47;5061076;28;20032;-78
2022/09/16 07:32:14;;;;;;;3.80;1.70;;;;;;;17.46;57.91;96749.84;5067920;28;20039;-77
2022/09/16 07:34:39;;;;;;;2.75;1.70;;;;;;;17.42;58.16;96742.53;5034405;28;20469;-78
2022/09/16 07:37:05;;;;;;;5.32;1.92;;;;;;;17.59;56.75;96747.13;5049645;28;20047;-77
2022/09/16 07:39:30;;;;;;;4.75;1.85;;;;;;;17.41;56.31;96754.16;5029774;28;20033;-78
2022/09/16 07:41:56;;;;;;;2.88;1.45;;;;;;;17.56;56.23;96762.75;5046341;28;20120;-77
2022/09/16 07:44:21;;;;;;;6.40;2.35;;;;;;;17.55;56.47;96758.59;5043206;28;20040;-77
2022/09/16 07:46:47;;;;;;;2.28;1.33;;;;;;;17.41;56.48;96763.91;5050447;28;20065;-77
2022/09/16 07:49:13;;;;;;;3.40;1.52;;;;;;;17.32;55.87;96755.91;5065069;28;20432;-78
2022/09/16 07:51:39;;;;;;;5.45;1.35;;;;;;;17.46;55.98;96765.63;5066268;28;20048;-77
2022/09/16 07:54:07;;;;;;;5.05;1.40;;;;;;;17.47;55.88;96764.56;5065907;28;20816;-78
2022/09/16 07:56:36;;;;;;;4.00;2.55;;;;;;;17.48;55.65;96758.19;5066587;28;20032;-78
2022/09/16 07:59:03;;;;;;;2.00;1.17;;;;;;;17.63;54.60;96764.97;5063788;28;20744;-78
2022/09/16 08:01:30;;;;;;;3.50;1.40;;;;;;;17.65;55.34;96753.06;5060154;28;20029;-77
2022/09/16 08:03:57;;;;;;;3.42;1.70;;;;;;;17.74;54.79;96771.56;5049469;28;20028;-78
2022/09/16 08:06:24;;;;;;;5.15;2.13;;;;;;;17.74;54.23;96767.06;5049408;28;20064;-78
2022/09/16 08:08:51;;;;;;;2.13;1.27;;;;;;;17.76;54.47;96772.03;5065034;28;20381;-78
2022/09/16 08:11:17;;;;;;;4.63;1.20;;;;;;;17.71;54.27;96778.19;5048828;28;20504;-78
2022/09/16 08:13:44;;;;;;;1.65;0.90;;;;;;;17.76;53.56;96778.06;5066496;28;20110;-78
2022/09/16 08:16:14;;;;;;;2.10;1.10;;;;;;;17.62;52.90;96782.63;5066277;28;20032;-78
2022/09/16 08:18:40;;;;;;;4.20;1.42;;;;;;;17.66;54.68;96783.56;5048077;28;20428;-77
2022/09/16 08:21:07;;;;;;;4.57;1.17;;;;;;;17.73;52.34;96786.56;5067840;28;20037;-78
2022/09/16 08:23:34;;;;;;;5.18;1.45;;;;;;;17.66;53.87;96788.84;5065521;28;20336;-78
2022/09/16 08:25:59;;;;;;;2.25;1.00;;;;;;;17.68;52.63;96785.91;5049512;28;20032;-77
2022/09/16 08:28:26;;;;;;;3.00;1.35;;;;;;;17.71;52.13;96783.47;5047740;28;20086;-77
2022/09/16 08:30:51;;;;;;;1.45;1.00;;;;;;;17.69;52.06;96782.22;5065951;28;20028;-77
2022/09/16 08:33:20;;;;;;;5.10;1.00;;;;;;;17.71;51.66;96793.22;5065840;28;20112;-78
2022/09/16 08:35:46;;;;;;;1.90;0.73;;;;;;;17.56;52.61;96795.16;5032251;28;20095;-78
2022/09/16 08:38:12;;;;;;;2.17;0.95;;;;;;;17.36;52.17;96792.97;5067779;28;20464;-78
2022/09/16 08:40:42;;;;;;;2.53;1.00;;;;;;;17.36;52.40;96790.34;5048756;28;20064;-77
2022/09/16 08:43:23;;;;;;;5.43;1.38;;;;;;;17.37;52.19;96789.25;5048149;28;20140;-77
2022/09/16 08:46:11;;;;;;;3.38;1.58;;;;;;;17.51;52.04;96797.09;5043332;28;20033;-78
2022/09/16 08:49:06;;;;;;;2.35;1.40;;;;;;;17.47;52.21;96794.28;5047739;28;20064;-77
2022/09/16 08:51:31;;;;;;;2.30;1.40;;;;;;;17.64;52.25;96798.91;5047961;28;20052;-78
2022/09/16 08:54:08;;;;;;;3.15;1.00;;;;;;;17.53;52.42;96797.56;5047529;28;20024;-78
2022/09/16 08:56:35;;;;;;;3.00;1.67;;;;;;;17.30;54.36;96796.78;5043828;28;20044;-77
2022/09/16 08:59:02;;;;;;;1.95;1.70;;;;;;;17.46;54.93;96795.38;5064632;28;20033;-77
2022/09/16 09:01:56;;;;;;;3.38;0.93;;;;;;;17.45;52.70;96791.19;5058629;28;20032;-77
2022/09/16 09:04:21;;;;;;;4.88;1.27;;;;;;;17.76;53.19;96793.09;5028818;28;20033;-77
2022/09/16 09:07:00;;;;;;;2.67;1.08;;;;;;;17.64;51.18;96795.50;5049311;28;20484;-77
2022/09/16 09:09:40;;;;;;;3.67;1.30;;;;;;;18.06;51.18;96801.34;5065706;28;20396;-77
2022/09/16 09:12:10;;;;;;;3.53;1.67;;;;;;;18.12;50.35;96800.94;5065471;28;20488;-78
2022/09/16 09:14:49;;;;;;;3.20;0.95;;;;;;;18.05;49.90;96795.31;5046092;28;20032;-78
2022/09/16 09:17:30;;;;;;;2.83;1.25;;;;;;;18.66;50.30;96794.78;5049378;28;20025;-78
2022/09/16 09:20:32;;;;;;;2.42;1.40;;;;;;;18.76;48.96;96796.38;5048576;28;20043;-78
2022/09/16 09:23:25;;;;;;;2.63;0.80;;;;;;;18.68;46.64;96784.72;5064115;28;20115;-77
2022/09/16 09:25:57;;;;;;;4.78;0.80;;;;;;;18.44;46.35;96787.72;5030413;28;20037;-77
2022/09/16 09:28:52;;;;;;;2.83;0.68;;;;;;;18.44;45.13;96790.38;5067492;28;20032;-77
2022/09/16 09:31:38;;;;;;;2.83;0.65;;;;;;;18.64;48.00;96791.69;5064410;28;20035;-77
2022/09/16 09:34:09;;;;;;;4.07;0.68;;;;;;;18.78;47.25;96781.81;5046837;28;20078;-76
2022/09/16 09:36:57;;;;;;;2.08;0.93;;;;;;;18.67;47.81;96786.56;5066365;28;20047;-77
2022/09/16 09:39:44;;;;;;;3.47;1.02;;;;;;;18.79;44.68;96783.34;5047938;28;20119;-77
2022/09/16 09:42:15;;;;;;;1.95;0.70;;;;;;;18.82;44.86;96782.75;5059697;28;20033;-77
2022/09/16 09:44:46;;;;;;;1.83;0.60;;;;;;;18.82;44.22;96788.03;5045764;28;20056;-77
2022/09/16 09:47:23;;;;;;;2.08;0.70;;;;;;;18.76;45.45;96777.91;4996505;28;20722;-77
2022/09/16 09:49:56;;;;;;;2.08;0.68;;;;;;;19.17;45.13;96782.81;4948770;28;20624;-77
2022/09/16 09:52:35;;;;;;;1.35;0.60;;;;;;;19.41;44.43;96776.28;4963187;28;20291;-78
2022/09/16 09:55:16;;;;;;;1.73;0.40;;;;;;;19.60;45.19;96775.97;4963664;28;20194;-77
2022/09/16 09:58:20;;;;;;;1.77;1.02;;;;;;;19.82;41.33;96781.09;4982689;28;20209;-78
2022/09/16 10:00:45;;;;;;;1.73;0.60;;;;;;;20.07;42.70;96773.44;4980692;28;20193;-78
2022/09/16 10:03:13;;;;;;;2.25;0.60;;;;;;;20.15;41.57;96771.84;4982659;28;20213;-78
2022/09/16 10:05:39;;;;;;;2.78;0.80;;;;;;;20.24;40.62;96777.88;4965629;28;20226;-78
2022/09/16 10:08:24;;;;;;;3.10;0.60;;;;;;;20.02;40.84;96765.69;4966093;28;20379;-78
2022/09/16 10:10:52;;;;;;;1.52;0.43;;;;;;;19.91;40.74;96778.47;4982834;28;20210;-78
2022/09/16 10:13:19;;;;;;;2.50;1.00;;;;;;;19.88;41.96;96771.16;4980928;28;20646;-78
2022/09/16 10:15:44;;;;;;;1.48;0.68;;;;;;;19.71;42.98;96765.88;4966009;28;20178;-77
2022/09/16 10:18:25;;;;;;;1.25;0.52;;;;;;;19.22;42.47;96769.47;4946169;28;20338;-77
2022/09/16 10:21:17;;;;;;;2.47;0.50;;;;;;;19.17;43.10;96776.75;4962144;28;20213;-78
2022/09/16 10:23:56;;;;;;;2.08;0.60;;;;;;;19.09;43.57;96779.09;4982090;28;20312;-77
2022/09/16 10:26:26;;;;;;;3.45;0.80;;;;;;;19.00;43.79;96761.69;4966268;28;20617;-77
2022/09/16 10:28:54;;;;;;;3.40;1.17;;;;;;;19.09;45.26;96765.13;4953359;28;20566;-77
2022/09/16 10:31:20;;;;;;;1.48;0.70;;;;;;;19.28;45.01;96768.22;4956435;28;20210;-77
2022/09/16 10:33:46;;;;;;;1.38;0.50;;;;;;;19.52;43.15;96763.53;4982964;28;20285;-78
2022/09/16 10:36:21;;;;;;;2.65;0.50;;;;;;;19.39;42.81;96766.03;4985447;28;20300;-78
2022/09/16 10:38:52;;;;;;;3.25;0.90;;;;;;;19.42;42.92;96760.16;4951447;28;20231;-78
2022/09/16 10:41:26;;;;;;;2.10;0.50;;;;;;;19.28;42.82;96755.03;4969542;28;20277;-77
2022/09/16 10:44:16;;;;;;;1.52;0.70;;;;;;;19.09;44.30;96759.84;4966661;28;20267;-77
2022/09/16 10:47:01;;;;;;;2.70;0.70;;;;;;;19.15;43.94;96769.16;4967044;28;20278;-78
2022/09/16 10:49:37;;;;;;;1.95;0.70;;;;;;;19.11;44.34;96760.31;4969062;28;20256;-77
2022/09/16 10:52:23;;;;;;;1.17;0.70;;;;;;;19.24;45.09;96756.75;4968161;28;20260;-78
2022/09/16 10:54:48;;;;;;;1.77;0.65;;;;;;;19.54;44.13;96756.88;4999075;28;20843;-78
2022/09/16 10:57:31;;;;;;;2.13;1.08;;;;;;;20.02;43.69;96753.22;4969013;28;20166;-78
2022/09/16 11:00:04;;;;;;;2.40;0.90;;;;;;;20.67;42.48;96753.13;4952599;28;20271;-78
2022/09/16 11:03:01;;;;;;;1.90;0.75;;;;;;;20.89;45.41;96752.06;4967462;28;20658;-78
2022/09/16 11:05:32;;;;;;;1.85;1.25;;;;;;;21.55;40.73;96750.63;4984671;28;20236;-78
2022/09/16 11:08:13;;;;;;;2.45;0.90;;;;;;;22.07;39.20;96749.31;4969167;28;20161;-78
2022/09/16 11:11:02;;;;;;;3.08;0.63;;;;;;;21.58;40.39;96755.28;4985733;28;20189;-78
2022/09/16 11:13:31;;;;;;;1.90;0.90;;;;;;;21.37;37.27;96757.94;4967598;28;20203;-78
2022/09/16 11:16:08;;;;;;;1.83;0.98;;;;;;;21.41;37.86;96748.25;4987048;28;20159;-77
2022/09/16 11:18:53;;;;;;;2.60;0.70;;;;;;;21.17;38.81;96745.50;4987247;28;20243;-78
2022/09/16 11:21:34;;;;;;;2.38;1.15;;;;;;;21.30;38.29;96752.38;4987161;28;20201;-78
2022/09/16 11:24:20;;;;;;;1.17;0.80;;;;;;;20.73;39.27;96746.56;4964925;28;20260;-78
2022/09/16 11:27:16;;;;;;;3.03;0.98;;;;;;;20.52;39.99;96748.38;4986016;28;20343;-78
2022/09/16 11:29:51;;;;;;;2.63;0.82;;;;;;;20.43;40.96;96747.66;4985257;28;20185;-77
2022/09/16 11:32:41;;;;;;;0.88;0.60;;;;;;;20.13;42.25;96751.00;4985781;28;20133;-77
2022/09/16 11:35:18;;;;;;;3.15;0.60;;;;;;;20.15;41.12;96755.97;4966356;28;20163;-77
2022/09/16 11:38:00;;;;;;;1.35;0.82;;;;;;;20.30;41.87;96760.75;4983931;28;20291;-77
2022/09/16 11:40:29;;;;;;;1.10;0.75;;;;;;;20.06;42.15;96756.00;4985649;28;20581;-77
2022/09/16 11:43:10;;;;;;;1.40;0.80;;;;;;;20.04;42.31;96754.78;4986302;28;20152;-77
2022/09/16 11:45:46;;;;;;;3.00;1.17;;;;;;;20.04;43.00;96752.16;4981223;28;20351;-77
2022/09/16 11:48:35;;;;;;;2.10;0.82;;;;;;;20.24;42.78;96758.59;4983365;28;20209;-77
2022/09/16 11:51:22;;;;;;;1.27;0.70;;;;;;;20.17;43.35;96759.88;4983719;28;20209;-77
2022/09/16 11:54:06;;;;;;;2.17;0.70;;;;;;;20.17;41.23;96759.09;4981322;28;20327;-77